createdAt,value
2023-03-30T00:01:30.807Z,22.15
2023-03-30T00:06:29.117Z,22.06
2023-03-30T00:11:28.470Z,21.94
2023-03-30T00:16:27.895Z,21.83
2023-03-30T00:21:27.016Z,21.72
2023-03-30T00:26:26.333Z,21.65
2023-03-30T00:31:26.021Z,21.61
2023-03-30T00:36:25.938Z,21.53
2023-03-30T00:41:24.077Z,21.46
2023-03-30T00:46:23.238Z,21.38
2023-03-30T00:51:22.585Z,21.31
2023-03-30T00:56:21.732Z,21.27
2023-03-30T01:01:18.977Z,21.19
2023-03-30T01:06:20.274Z,21.13
2023-03-30T01:11:19.524Z,21.06
2023-03-30T01:16:18.823Z,20.99
2023-03-30T01:21:18.052Z,20.94
2023-03-30T01:26:16.192Z,20.89
2023-03-30T01:31:16.434Z,20.84
2023-03-30T01:36:15.700Z,20.77
2023-03-30T01:41:14.855Z,20.74
2023-03-30T01:46:14.985Z,20.70
2023-03-30T01:51:13.304Z,20.64
2023-03-30T01:56:12.620Z,20.64
2023-03-30T02:01:11.980Z,20.58
2023-03-30T02:06:11.092Z,20.55
2023-03-30T02:11:10.343Z,20.52
2023-03-30T02:16:09.609Z,20.51
2023-03-30T02:21:08.710Z,20.43
2023-03-30T02:26:09.048Z,20.41
2023-03-30T02:31:08.106Z,20.38
2023-03-30T02:36:06.401Z,20.33
2023-03-30T02:41:06.091Z,20.31
2023-03-30T02:46:08.031Z,20.31
2023-03-30T02:51:04.524Z,20.24
2023-03-30T02:56:04.428Z,20.24
2023-03-30T03:01:03.006Z,20.20
2023-03-30T03:06:01.832Z,20.18
2023-03-30T03:11:00.962Z,20.13
2023-03-30T03:16:01.630Z,20.13
2023-03-30T03:20:59.462Z,20.08
2023-03-30T03:25:57.638Z,20.08
2023-03-30T03:30:57.970Z,20.06
2023-03-30T03:35:56.284Z,20.03
2023-03-30T03:40:56.399Z,20.02
2023-03-30T03:45:55.552Z,20.02
2023-03-30T03:50:54.840Z,19.98
2023-03-30T03:55:53.956Z,19.98
2023-03-30T04:00:54.308Z,19.98
2023-03-30T04:05:53.379Z,19.94
2023-03-30T04:10:51.720Z,19.92
2023-03-30T04:15:52.074Z,19.88
2023-03-30T04:20:51.194Z,19.91
2023-03-30T04:25:49.488Z,19.86
2023-03-30T04:30:48.810Z,19.84
2023-03-30T04:35:48.133Z,19.84
2023-03-30T04:40:47.260Z,19.81
2023-03-30T04:45:47.566Z,19.80
2023-03-30T04:50:46.951Z,19.76
2023-03-30T04:55:44.124Z,19.77
2023-03-30T05:00:44.260Z,19.77
2023-03-30T05:05:44.550Z,19.74
2023-03-30T05:10:41.893Z,19.74
2023-03-30T05:15:41.995Z,19.69
2023-03-30T05:20:41.318Z,19.69
2023-03-30T05:25:38.606Z,19.68
2023-03-30T05:30:40.889Z,19.66
2023-03-30T05:35:39.222Z,19.66
2023-03-30T05:40:38.345Z,19.65
2023-03-30T05:45:39.489Z,19.63
2023-03-30T05:50:36.766Z,19.62
2023-03-30T05:55:36.049Z,19.61
2023-03-30T06:00:35.316Z,19.61
2023-03-30T06:05:34.619Z,19.56
2023-03-30T06:10:32.945Z,19.61
2023-03-30T06:15:34.079Z,19.61
2023-03-30T06:20:33.365Z,19.63
2023-03-30T06:25:31.715Z,19.63
2023-03-30T06:30:29.962Z,19.66
2023-03-30T06:35:30.388Z,19.69
2023-03-30T06:40:28.336Z,19.74
2023-03-30T06:45:28.753Z,19.73
2023-03-30T06:50:28.045Z,19.71
2023-03-30T06:55:26.484Z,19.71
2023-03-30T07:00:26.721Z,19.73
2023-03-30T07:05:27.059Z,19.69
2023-03-30T07:10:24.967Z,19.71
2023-03-30T07:15:24.227Z,19.69
2023-03-30T07:20:23.432Z,19.68
2023-03-30T07:25:22.747Z,19.68
2023-03-30T07:30:21.993Z,19.68
2023-03-30T07:35:21.162Z,19.65
2023-03-30T07:40:20.565Z,19.65
2023-03-30T07:45:19.579Z,19.63
2023-03-30T07:50:19.025Z,19.65
2023-03-30T07:55:17.255Z,19.62
2023-03-30T08:00:17.479Z,19.63
2023-03-30T08:05:16.618Z,19.62
2023-03-30T08:10:15.738Z,19.61
2023-03-30T08:15:14.825Z,19.61
2023-03-30T08:20:14.133Z,19.62
2023-03-30T08:25:13.351Z,19.62
2023-03-30T08:30:12.600Z,19.61
2023-03-30T08:35:12.047Z,19.61
2023-03-30T08:40:10.249Z,19.59
2023-03-30T08:45:09.472Z,19.58
2023-03-30T08:50:09.816Z,19.59
2023-03-30T08:55:07.968Z,19.61
2023-03-30T09:00:07.162Z,19.61
2023-03-30T09:05:07.539Z,19.65
2023-03-30T09:10:06.608Z,19.66
2023-03-30T09:15:12.027Z,19.71
2023-03-30T09:20:04.136Z,19.74
2023-03-30T09:25:03.396Z,19.77
2023-03-30T09:30:03.673Z,19.80
2023-03-30T09:35:01.870Z,19.81
2023-03-30T09:40:02.005Z,19.83
2023-03-30T09:45:01.180Z,19.84
2023-03-30T09:50:00.364Z,19.87
2023-03-30T09:54:58.678Z,19.87
2023-03-30T09:59:59.241Z,19.83
2023-03-30T10:04:58.477Z,19.84
2023-03-30T10:09:57.487Z,19.84
2023-03-30T10:14:56.622Z,19.83
2023-03-30T10:20:07.299Z,19.83
2023-03-30T10:24:54.349Z,19.80
2023-03-30T10:29:54.704Z,19.81
2023-03-30T10:34:53.629Z,19.80
2023-03-30T10:39:53.200Z,19.81
2023-03-30T10:44:52.138Z,19.81
2023-03-30T10:49:51.438Z,19.78
2023-03-30T10:54:49.542Z,19.78
2023-03-30T10:59:49.947Z,19.78
2023-03-30T11:04:49.209Z,19.76
2023-03-30T11:09:48.371Z,19.74
2023-03-30T11:14:47.507Z,19.74
2023-03-30T11:19:46.588Z,19.73
2023-03-30T11:24:44.925Z,19.69
2023-03-30T11:29:44.035Z,19.68
2023-03-30T11:34:44.295Z,19.68
2023-03-30T11:39:43.606Z,19.69
2023-03-30T11:44:42.828Z,19.71
2023-03-30T11:49:41.155Z,19.77
2023-03-30T11:54:44.945Z,19.83
2023-03-30T11:59:40.792Z,19.88
2023-03-30T12:04:38.880Z,19.92
2023-03-30T12:09:39.126Z,19.95
2023-03-30T12:14:38.398Z,19.96
2023-03-30T12:19:45.614Z,19.96
2023-03-30T12:24:35.980Z,19.94
2023-03-30T12:29:58.487Z,19.96
2023-03-30T12:34:34.355Z,19.94
2023-03-30T12:39:34.634Z,19.94
2023-03-30T12:44:33.984Z,19.88
2023-03-30T12:49:41.088Z,19.88
2023-03-30T12:54:32.398Z,19.84
2023-03-30T12:59:31.603Z,19.84
2023-03-30T13:04:29.824Z,19.81
2023-03-30T13:09:30.151Z,19.80
2023-03-30T13:14:29.256Z,19.80
2023-03-30T13:19:28.552Z,19.77
2023-03-30T13:24:27.781Z,19.76
2023-03-30T13:29:27.192Z,19.76
2023-03-30T13:34:26.315Z,19.71
2023-03-30T13:39:25.532Z,19.68
2023-03-30T13:44:26.006Z,19.68
2023-03-30T13:49:23.054Z,19.66
2023-03-30T13:54:24.653Z,19.65
2023-03-30T13:59:22.472Z,19.63
2023-03-30T14:04:21.809Z,19.61
2023-03-30T14:09:20.896Z,19.61
2023-03-30T14:14:20.094Z,19.58
2023-03-30T14:19:19.352Z,19.55
2023-03-30T14:24:17.577Z,19.55
2023-03-30T14:29:24.623Z,19.55
2023-03-30T14:34:17.100Z,19.56
2023-03-30T14:39:16.486Z,19.59
2023-03-30T14:44:15.821Z,19.62
2023-03-30T14:49:14.831Z,19.65
2023-03-30T14:54:14.049Z,19.68
2023-03-30T14:59:13.180Z,19.71
2023-03-30T15:04:12.557Z,19.74
2023-03-30T15:09:10.606Z,19.74
2023-03-30T15:14:10.692Z,19.74
2023-03-30T15:19:09.139Z,19.76
2023-03-30T15:24:09.458Z,19.77
2023-03-30T15:29:07.587Z,19.78
2023-03-30T15:34:08.144Z,19.77
2023-03-30T15:39:07.195Z,19.77
2023-03-30T15:44:05.338Z,19.76
2023-03-30T15:49:05.590Z,19.76
2023-03-30T15:54:04.847Z,19.74
2023-03-30T15:59:04.097Z,19.73
2023-03-30T16:04:02.410Z,19.73
2023-03-30T16:09:02.666Z,19.73
2023-03-30T16:14:00.868Z,19.71
2023-03-30T16:19:00.078Z,19.71
2023-03-30T16:24:00.230Z,19.69
2023-03-30T16:28:59.317Z,19.69
2023-03-30T16:33:58.663Z,20.23
2023-03-30T16:38:57.882Z,21.71
2023-03-30T16:43:57.855Z,22.51
2023-03-30T16:48:56.160Z,23.47
2023-03-30T16:53:54.751Z,23.93
2023-03-30T16:58:55.705Z,24.40
2023-03-30T17:03:53.847Z,24.53
2023-03-30T17:08:52.347Z,24.24
2023-03-30T17:13:51.242Z,24.28
2023-03-30T17:18:52.456Z,24.20
2023-03-30T17:23:50.511Z,24.21
2023-03-30T17:28:49.859Z,24.45
2023-03-30T17:33:48.980Z,24.64
2023-03-30T17:38:47.409Z,24.95
2023-03-30T17:43:48.605Z,25.36
2023-03-30T17:48:45.815Z,25.33
2023-03-30T17:53:45.032Z,25.15
2023-03-30T17:58:45.653Z,25.00
2023-03-30T18:03:44.762Z,24.99
2023-03-30T18:08:43.772Z,25.57
2023-03-30T18:13:43.042Z,26.23
2023-03-30T18:18:42.276Z,26.66
2023-03-30T18:23:41.463Z,26.75
2023-03-30T18:28:40.747Z,27.18
2023-03-30T18:33:40.877Z,27.82
2023-03-30T18:38:39.369Z,27.65
2023-03-30T18:43:39.656Z,27.79
2023-03-30T18:48:37.966Z,27.32
2023-03-30T18:53:38.048Z,26.97
2023-03-30T18:58:35.090Z,26.88
2023-03-30T19:03:37.242Z,27.04
2023-03-30T19:08:34.928Z,27.60
2023-03-30T19:13:35.050Z,28.27
2023-03-30T19:18:33.399Z,28.06
2023-03-30T19:23:31.562Z,27.72
2023-03-30T19:28:32.926Z,27.93
2023-03-30T19:33:31.251Z,28.67
2023-03-30T19:38:30.496Z,28.77
2023-03-30T19:43:30.464Z,28.76
2023-03-30T19:48:29.107Z,28.34
2023-03-30T19:53:28.267Z,28.39
2023-03-30T19:58:29.459Z,28.71
2023-03-30T20:03:26.628Z,28.81
2023-03-30T20:08:25.815Z,28.98
2023-03-30T20:13:25.059Z,28.85
2023-03-30T20:18:25.143Z,29.33
2023-03-30T20:23:22.742Z,29.34
2023-03-30T20:28:22.854Z,29.43
2023-03-30T20:33:22.964Z,28.66
2023-03-30T20:38:21.195Z,28.76
2023-03-30T20:43:20.553Z,29.09
2023-03-30T20:48:20.928Z,29.11
2023-03-30T20:53:18.914Z,28.93
2023-03-30T20:58:18.063Z,28.61
2023-03-30T21:03:17.210Z,28.76
2023-03-30T21:08:16.367Z,29.19
2023-03-30T21:13:15.538Z,29.58
2023-03-30T21:18:14.684Z,29.11
2023-03-30T21:23:13.883Z,28.76
2023-03-30T21:28:14.019Z,29.00
2023-03-30T21:33:12.180Z,29.33
2023-03-30T21:38:11.315Z,29.63
2023-03-30T21:43:10.693Z,29.21
2023-03-30T21:48:10.862Z,29.19
2023-03-30T21:53:09.025Z,29.30
2023-03-30T21:58:08.337Z,29.42
2023-03-30T22:03:08.546Z,29.57
2023-03-30T22:08:06.692Z,29.60
2023-03-30T22:13:07.019Z,29.73
2023-03-30T22:18:04.359Z,29.49
2023-03-30T22:23:06.525Z,29.30
2023-03-30T22:28:03.704Z,29.60
2023-03-30T22:33:05.100Z,29.63
2023-03-30T22:38:02.075Z,29.49
2023-03-30T22:43:01.227Z,29.21
2023-03-30T22:48:00.554Z,29.71
2023-03-30T22:52:59.690Z,29.76
2023-03-30T22:57:58.816Z,29.51
2023-03-30T23:02:58.611Z,29.71
2023-03-30T23:07:57.649Z,29.55
2023-03-30T23:12:56.914Z,29.24
2023-03-30T23:17:56.205Z,28.88
2023-03-30T23:22:55.476Z,28.40
2023-03-30T23:27:53.772Z,27.88
2023-03-30T23:32:49.835Z,27.36
2023-03-30T23:37:53.517Z,26.92
2023-03-30T23:42:52.572Z,26.54
2023-03-30T23:47:51.863Z,26.25
2023-03-30T23:52:51.033Z,25.94
2023-03-30T23:57:49.351Z,25.67
